UTAir B735 at Kiev on Jul 15th 2013, overran runway on landing

Last Update: July 15, 2013 / 15:20:01 GMT/Zulu time

Bookmark this article
Incident Facts

Date of incident
Jul 15, 2013

Classification
Incident

Airline
UTAir

Flight number
UT-797

Aircraft Registration
VQ-BJM

Aircraft Type
Boeing 737-500

ICAO Type Designator
B735

Airport ICAO Code
UKKK

A UTAir Boeing 737-500, registration VQ-BJM performing flight UT-797 from Moscow Vnukovo (Russia) to Kiev Zhulhany (Ukraine) with 77 people on board, overran the end of the runway 26 while landing at Kiev's Zhulhany Airport at 12:15L (09:15Z) and came to a stop about 220 meters past the runway end and 20 meters past the paved surface of the runway end safety area. No injuries and no damage occurred.

The airport was closed for about 2:45 hours until the passengers had disembarked onto soft ground via mobile stairs and the aircraft was towed to the apron.

Following examination the aircraft was released to perform the return flight due to depart any time.

Metars:
UKKK 151100Z 28006MPS 260V320 9999 BKN038 22/13 Q1009 26CLRD70 TEMPO -TSRA BKN015CB
UKKK 151030Z 29006MPS 9999 FEW030CB BKN050 22/14 Q1009 26290256 TEMPO 2100 -TSRAGR BKN015CB
UKKK 151000Z 29005MPS 250V310 9999 FEW030CB BKN050 21/14 Q1009 26290256 TEMPO 2100 -TSRAGR BKN015CB
UKKK 150930Z 29005MPS 9999 FEW030CB BKN050 20/14 Q1009 26290256 TEMPO 2100 -TSRAGR BKN015CB
UKKK 150900Z 29005MPS 240V340 9999 BKN040 21/13 Q1009 26CLRD70 NOSIG
UKKK 150830Z 31004MPS 9999 BKN031 20/13 Q1009 26CLRD70 NOSIG
UKKK 150800Z 28004MPS 180V320 9999 BKN022 19/14 Q1009 26CLRD70 NOSIG
UKKK 150730Z 28004MPS 250V310 9999 BKN023 18/14 Q1009 26CLRD70 NOSIG
UKKK 150700Z 27004MPS 9999 BKN015 17/14 Q1009 26CLRD70 NOSIG
UKKK 150630Z 27004MPS 9999 BKN011 16/14 Q1009 26CLRD70 NOSIG
UKKK 150600Z 27004MPS 9999 OVC008 16/14 Q1009 26CLRD70 TEMPO BKN005
UKKK 150530Z 29004MPS 9999 OVC006 15/14 Q1009 26CLRD70 TEMPO BKN002
UKKK 150500Z 27004MPS 6000 BKN002 15/14 Q1009 26CLRD70 TEMPO BKN002
Incident Facts

Date of incident
Jul 15, 2013

Classification
Incident

Airline
UTAir

Flight number
UT-797

Aircraft Registration
VQ-BJM

Aircraft Type
Boeing 737-500

ICAO Type Designator
B735

Airport ICAO Code
UKKK

This article is published under license from Avherald.com. © of text by Avherald.com.
Article source

You can read 4 more free articles without a subscription.

Subscribe now and continue reading without any limits!

Are you a subscriber?
Login
Subscribe

Read unlimited articles and receive our daily update briefing. Gain better insights into what is happening in commercial aviation safety.

Free newsletter

Want to know more and stay ahead? Get our free weekly newsletter and join 4930 existing subscribers.

By subscribing, you accept our terms and conditions and confirm that you've read our privacy policy.

Send tip

Support AeroInside by sending a small tip amount.

Related articles

Newest articles

Subscribe today

Are you researching aviation incidents? Get access to AeroInside Insights, unlimited read access and receive the daily newsletter.

Pick your plan and subscribe

Partner

Blockaviation logo

A new way to document and demonstrate airworthiness compliance and aircraft value. Find out more.

Virtual Speech logo

ELITE Simulation Solutions is a leading global provider of Flight Simulation Training Devices, IFR training software as well as flight controls and related services. Find out more.

Get updates

Never miss an article from AeroInside. Subscribe to our free weekly newsletter and join 4930 existing subscribers.

By subscribing, you accept our terms and conditions and that you've read our privacy policy.

AeroInside Blog
Popular aircraft
Airbus A320
Boeing 737-800
Boeing 737-800 MAX
Popular airlines
American Airlines
United
Delta
Air Canada
Lufthansa
British Airways